Atlantic City, NJ

7:31 PM EST en Febrero 27, 2015 (GMT -0500)
APRSWXNET Cape May Court House NJ US | Change Station
CLOSE
Current Station
Estación meteorológica personal
Location: Absecon, NJ
Altura: 9 ft
Estaciones meteorológicas cercanas

Alt 9 ft 39.40 °N, 74.47 °W | Updated 27 minutes ago

Despejado
Despejado
25 ° F
Sensación térmica 25 ° F
N
0
Viento Variable Viento desde Oeste
Gusts 4.0 mph

Hoy
Alta -- | Baja -- ° F
--% Posibilidad de precipitaciones
Ayer
Alta -- | Baja -- ° F
Precip. -- pul
6:33 AM 5:47 PM
Gibosa creciente, 73% visible
Presión 30.52 pul
Visibilidad 10.0 Millas
Nubes Despejado
Vientos helados 25 ° F
Punto de rocío 16 ° F
Humedad 68%
Precipitaciones 0.00 pul
Espesor de la nieve No disponible.
UV 0 de una escala de 12
Polen .50 de una escala de 12
Calidad del aire No disponible.
Flu Activity No disponible.
METAR KACY 272354Z 29007KT 10SM CLR M03/M12 A3051 RMK AO2 SLP333 T10331117 10006 21039 53029

More Conditions Fewer Conditions

Presión 30.52 pul
Visibilidad 10.0 Millas
Nubes Despejado
Vientos helados 25 ° F
Punto de rocío 16 ° F
Humedad 68%
Precipitaciones 0.00 pul
Espesor de la nieve No disponible.
UV 0 de una escala de 12
Polen .50 de una escala de 12
Calidad del aire No disponible.
Flu Activity No disponible.
METAR KACY 272354Z 29007KT 10SM CLR M03/M12 A3051 RMK AO2 SLP333 T10331117 10006 21039 53029

More Conditions Fewer Conditions

10-Day Weather Forecast

Almanac

Astronomía

Feb. 27, 2015 Salida Puesta
Hora real
Crepúsculo civil
Crepúsculo náutico
Crepúsculo astronómico
Luna
Horas de luz
Horas de luz
Tomorrow will be .
, % of the Moon is Illuminated

Extremos de hoy

Máximos del estado Bajos del estado

Community

WunderPhotos

Upload Photos

1,800,904 ¡fotos cargadas!

WunderBlogs® & News

Nearby

Calidad del aire

  Calidad del aire Índice AQ Contaminante
Not available.

Grosos de nieve

Estación Profundido Altura

Actividad de terremotos

Ciudad Distance Mag. Tiempo y dato
Magnitud mínima muestra es 2,5.

Temperaturas de aguas costeras

Lugar Temperatura

Estaciones meteorológicas cercanas